createdAt,value
2019-05-29T00:00:34.271Z,10.10
2019-05-29T00:03:02.754Z,10.10
2019-05-29T00:05:31.166Z,10.00
2019-05-29T00:07:59.625Z,10.00
2019-05-29T00:10:28.038Z,10.00
2019-05-29T00:12:56.484Z,10.00
2019-05-29T00:15:24.951Z,10.10
2019-05-29T00:17:53.401Z,10.20
2019-05-29T00:20:21.831Z,10.30
2019-05-29T00:22:50.272Z,10.60
2019-05-29T00:25:18.898Z,10.60
2019-05-29T00:27:47.506Z,10.50
2019-05-29T00:30:16.990Z,10.60
2019-05-29T00:32:45.575Z,10.60
2019-05-29T00:35:14.409Z,10.50
2019-05-29T00:37:42.825Z,10.60
2019-05-29T00:40:12.857Z,10.60
2019-05-29T00:42:41.529Z,10.60
2019-05-29T00:45:11.461Z,10.60
2019-05-29T00:47:39.978Z,10.70
2019-05-29T00:50:08.520Z,10.70
2019-05-29T00:52:36.943Z,10.70
2019-05-29T00:55:06.822Z,10.80
2019-05-29T00:57:35.247Z,10.80
2019-05-29T01:00:05.479Z,10.80
2019-05-29T01:02:33.927Z,10.70
2019-05-29T01:05:02.360Z,10.80
2019-05-29T01:07:30.791Z,10.80
2019-05-29T01:09:59.223Z,10.80
2019-05-29T01:12:27.634Z,10.70
2019-05-29T01:14:56.196Z,10.70
2019-05-29T01:17:24.598Z,10.70
2019-05-29T01:19:53.012Z,10.80
2019-05-29T01:22:22.426Z,10.90
2019-05-29T01:24:50.925Z,10.70
2019-05-29T01:27:19.322Z,10.80
2019-05-29T01:29:47.749Z,10.80
2019-05-29T01:32:17.283Z,10.70
2019-05-29T01:34:45.963Z,10.60
2019-05-29T01:37:15.997Z,10.50
2019-05-29T01:39:44.545Z,10.50
2019-05-29T01:42:12.967Z,10.60
2019-05-29T01:44:41.365Z,10.60
2019-05-29T01:47:09.799Z,10.60
2019-05-29T01:49:38.214Z,10.60
2019-05-29T01:52:06.626Z,10.60
2019-05-29T01:54:35.076Z,10.60
2019-05-29T01:57:03.544Z,10.60
2019-05-29T01:59:31.972Z,10.60
2019-05-29T02:02:00.395Z,10.80
2019-05-29T02:04:28.818Z,10.80
2019-05-29T02:06:57.238Z,10.80
2019-05-29T02:09:25.656Z,10.80
2019-05-29T02:11:54.081Z,10.70
2019-05-29T02:14:22.766Z,10.70
2019-05-29T02:16:51.292Z,10.70
2019-05-29T02:19:20.031Z,10.70
2019-05-29T02:21:48.616Z,10.70
2019-05-29T02:24:17.071Z,10.60
2019-05-29T02:26:45.523Z,10.70
2019-05-29T02:29:13.943Z,10.70
2019-05-29T02:31:42.351Z,10.60
2019-05-29T02:34:10.785Z,10.60
2019-05-29T02:36:39.252Z,10.50
2019-05-29T02:39:08.390Z,10.60
2019-05-29T02:41:37.097Z,10.60
2019-05-29T02:44:05.698Z,10.60
2019-05-29T02:46:34.202Z,10.60
2019-05-29T02:49:02.619Z,10.60
2019-05-29T02:51:31.043Z,10.60
2019-05-29T02:53:59.527Z,10.50
2019-05-29T02:56:29.080Z,10.60
2019-05-29T02:58:57.574Z,10.60
2019-05-29T03:01:27.643Z,10.60
2019-05-29T03:03:56.134Z,10.60
2019-05-29T03:06:26.242Z,10.60
2019-05-29T03:08:55.099Z,10.60
2019-05-29T03:11:25.069Z,10.50
2019-05-29T03:13:53.652Z,10.50
2019-05-29T03:16:23.932Z,10.60
2019-05-29T03:18:52.222Z,10.80
2019-05-29T03:21:20.647Z,10.80
2019-05-29T03:23:49.072Z,10.80
2019-05-29T03:26:17.504Z,10.70
2019-05-29T03:28:45.935Z,10.70
2019-05-29T03:31:14.353Z,10.70
2019-05-29T03:33:48.629Z,10.80
2019-05-29T03:36:12.907Z,10.70
2019-05-29T03:38:41.357Z,10.80
2019-05-29T03:41:09.803Z,10.80
2019-05-29T03:43:38.817Z,10.80
2019-05-29T03:46:07.327Z,10.80
2019-05-29T03:48:35.738Z,10.70
2019-05-29T03:51:04.224Z,10.70
2019-05-29T03:53:33.890Z,10.70
2019-05-29T03:56:03.556Z,10.70
2019-05-29T03:58:33.064Z,10.70
2019-05-29T04:01:02.555Z,10.80
2019-05-29T04:03:31.205Z,10.80
2019-05-29T04:06:00.139Z,10.80
2019-05-29T04:08:29.490Z,10.80
2019-05-29T04:10:58.701Z,10.80
2019-05-29T04:13:27.707Z,11.00
2019-05-29T04:15:59.992Z,10.90
2019-05-29T04:18:29.740Z,10.80
2019-05-29T04:21:00.515Z,10.90
2019-05-29T04:23:32.140Z,10.90
2019-05-29T04:26:02.513Z,10.90
2019-05-29T04:28:34.483Z,10.90
2019-05-29T04:31:02.970Z,10.90
2019-05-29T04:33:32.599Z,11.00
2019-05-29T04:36:02.485Z,10.90
2019-05-29T04:38:31.583Z,11.00
2019-05-29T04:41:01.063Z,11.10
2019-05-29T04:43:31.140Z,11.10
2019-05-29T04:45:59.622Z,11.10
2019-05-29T04:48:29.452Z,11.20
2019-05-29T04:50:58.244Z,11.20
2019-05-29T04:53:26.727Z,11.20
2019-05-29T04:55:55.226Z,11.20
2019-05-29T04:58:23.641Z,11.20
2019-05-29T05:00:58.953Z,11.10
2019-05-29T05:03:22.208Z,11.00
2019-05-29T05:05:50.635Z,11.00
2019-05-29T05:08:19.038Z,11.00
2019-05-29T05:10:47.465Z,11.00
2019-05-29T05:13:15.942Z,11.00
2019-05-29T05:15:46.528Z,10.90
2019-05-29T05:18:15.020Z,11.00
2019-05-29T05:20:43.427Z,11.10
2019-05-29T05:23:11.873Z,11.10
2019-05-29T05:25:41.013Z,11.10
2019-05-29T05:28:09.654Z,11.10
2019-05-29T05:30:38.492Z,11.10
2019-05-29T05:33:06.975Z,11.10
2019-05-29T05:35:36.729Z,11.10
2019-05-29T05:38:05.393Z,11.10
2019-05-29T05:40:37.078Z,11.00
2019-05-29T05:43:05.206Z,11.00
2019-05-29T05:45:35.003Z,10.90
2019-05-29T05:48:03.655Z,10.90
2019-05-29T05:50:33.198Z,11.00
2019-05-29T05:53:01.763Z,11.20
2019-05-29T05:55:31.390Z,11.30
2019-05-29T05:58:00.905Z,11.40
2019-05-29T06:00:31.911Z,11.40
2019-05-29T06:03:00.681Z,11.40
2019-05-29T06:05:29.175Z,11.40
2019-05-29T06:07:57.734Z,11.50
2019-05-29T06:10:26.266Z,11.50
2019-05-29T06:13:14.044Z,11.50
2019-05-29T06:15:43.035Z,11.50
2019-05-29T06:18:21.032Z,11.50
2019-05-29T06:20:43.094Z,11.40
2019-05-29T06:23:11.640Z,11.40
2019-05-29T06:25:40.771Z,11.40
2019-05-29T06:28:10.215Z,11.40
2019-05-29T06:30:40.517Z,11.40
2019-05-29T06:33:08.784Z,11.40
2019-05-29T06:35:37.567Z,11.70
2019-05-29T06:38:06.195Z,11.80
2019-05-29T06:40:38.285Z,11.80
2019-05-29T06:43:09.899Z,11.80
2019-05-29T06:45:38.155Z,11.80
2019-05-29T06:48:08.478Z,11.70
2019-05-29T06:50:37.382Z,11.70
2019-05-29T06:53:06.150Z,11.50
2019-05-29T06:55:35.826Z,11.50
2019-05-29T06:58:04.446Z,11.50
2019-05-29T07:00:35.668Z,11.60
2019-05-29T07:03:03.060Z,11.70
2019-05-29T07:05:31.563Z,11.90
2019-05-29T07:08:17.059Z,12.10
2019-05-29T07:10:30.163Z,12.10
2019-05-29T07:12:58.568Z,12.30
2019-05-29T07:15:27.003Z,12.40
2019-05-29T07:17:55.483Z,12.50
2019-05-29T07:20:23.986Z,12.50
2019-05-29T07:22:52.474Z,12.40
2019-05-29T07:25:20.890Z,12.50
2019-05-29T07:27:49.312Z,12.60
2019-05-29T07:30:20.165Z,12.70
2019-05-29T07:32:56.438Z,12.80
2019-05-29T07:35:18.760Z,12.90
2019-05-29T07:37:48.097Z,13.00
2019-05-29T07:40:16.712Z,13.20
2019-05-29T07:42:50.418Z,13.20
2019-05-29T07:45:15.598Z,13.30
2019-05-29T07:47:44.712Z,13.40
2019-05-29T07:50:13.560Z,13.40
2019-05-29T07:52:43.342Z,13.20
2019-05-29T07:55:12.270Z,13.40
2019-05-29T07:57:40.946Z,13.30
2019-05-29T08:00:10.467Z,13.30
2019-05-29T08:02:39.372Z,13.20
2019-05-29T08:05:09.005Z,13.30
2019-05-29T08:07:37.510Z,13.10
2019-05-29T08:10:07.080Z,13.20
2019-05-29T08:12:35.488Z,13.30
2019-05-29T08:15:04.820Z,13.50
2019-05-29T08:17:33.296Z,13.70
2019-05-29T08:20:06.858Z,14.10
2019-05-29T08:22:34.483Z,14.30
2019-05-29T08:25:02.044Z,14.60
2019-05-29T08:27:30.453Z,14.80
2019-05-29T08:29:58.883Z,15.00
2019-05-29T08:32:27.328Z,15.30
2019-05-29T08:34:55.817Z,15.40
2019-05-29T08:37:24.254Z,15.60
2019-05-29T08:39:52.789Z,15.90
2019-05-29T08:42:23.595Z,16.30
2019-05-29T08:44:51.692Z,15.90
2019-05-29T08:47:20.169Z,15.40
2019-05-29T08:49:51.620Z,15.00
2019-05-29T08:52:18.725Z,14.90
2019-05-29T08:54:48.090Z,14.60
2019-05-29T08:57:16.558Z,14.70
2019-05-29T08:59:44.992Z,14.90
2019-05-29T09:02:13.421Z,15.10
2019-05-29T09:04:43.031Z,15.10
2019-05-29T09:07:11.517Z,15.20
2019-05-29T09:09:39.934Z,15.30
2019-05-29T09:12:08.433Z,15.50
2019-05-29T09:14:36.856Z,15.60
2019-05-29T09:17:05.301Z,15.70
2019-05-29T09:19:33.753Z,15.70
2019-05-29T09:22:02.235Z,15.80
2019-05-29T09:24:30.632Z,16.00
2019-05-29T09:26:59.066Z,15.80
2019-05-29T09:29:27.491Z,15.70
2019-05-29T09:31:55.925Z,15.50
2019-05-29T09:34:24.429Z,15.40
2019-05-29T09:36:55.636Z,15.30
2019-05-29T09:39:23.316Z,15.20
2019-05-29T09:41:51.746Z,15.20
2019-05-29T09:44:33.921Z,15.30
2019-05-29T09:46:50.292Z,15.70
2019-05-29T09:49:20.190Z,15.70
2019-05-29T09:51:48.867Z,15.60
2019-05-29T09:54:17.313Z,15.60
2019-05-29T09:56:45.797Z,15.50
2019-05-29T09:59:14.219Z,15.70
2019-05-29T10:01:42.666Z,15.90
2019-05-29T10:04:11.150Z,15.90
2019-05-29T10:06:39.579Z,15.90
2019-05-29T10:09:09.239Z,15.90
2019-05-29T10:11:37.726Z,16.00
2019-05-29T10:14:06.284Z,16.40
2019-05-29T10:16:34.718Z,16.60
2019-05-29T10:19:03.340Z,16.90
2019-05-29T10:21:39.958Z,17.10
2019-05-29T10:24:03.994Z,16.90
2019-05-29T10:26:32.694Z,16.70
2019-05-29T10:29:08.179Z,16.30
2019-05-29T10:31:31.416Z,16.30
2019-05-29T10:33:59.904Z,16.30
2019-05-29T10:36:28.330Z,16.40
2019-05-29T10:38:56.805Z,16.50
2019-05-29T10:41:25.239Z,16.60
2019-05-29T10:43:53.669Z,17.00
2019-05-29T10:46:22.119Z,17.20
2019-05-29T10:48:53.770Z,17.60
2019-05-29T10:51:20.755Z,17.90
2019-05-29T10:53:50.351Z,18.10
2019-05-29T10:56:21.183Z,18.30
2019-05-29T10:58:55.720Z,18.10
2019-05-29T11:01:19.622Z,17.30
2019-05-29T11:03:49.240Z,16.80
2019-05-29T11:06:17.850Z,16.90
2019-05-29T11:08:46.274Z,16.50
2019-05-29T11:11:14.719Z,16.40
2019-05-29T11:13:43.162Z,16.30
2019-05-29T11:16:11.593Z,16.30
2019-05-29T11:18:40.020Z,16.50
2019-05-29T11:21:08.612Z,16.80
2019-05-29T11:23:37.017Z,17.20
2019-05-29T11:26:05.558Z,17.50
2019-05-29T11:28:33.989Z,17.70
2019-05-29T11:31:06.009Z,18.30
2019-05-29T11:33:32.562Z,19.00
2019-05-29T11:36:10.743Z,19.30
2019-05-29T11:38:31.136Z,18.80
2019-05-29T11:41:23.690Z,18.60
2019-05-29T11:43:29.794Z,18.20
2019-05-29T11:45:59.486Z,17.50
2019-05-29T11:48:28.216Z,17.00
2019-05-29T11:50:56.618Z,16.70
2019-05-29T11:53:25.012Z,16.50
2019-05-29T11:55:53.996Z,16.40
2019-05-29T11:58:30.999Z,16.50
2019-05-29T12:00:52.929Z,16.70
2019-05-29T12:03:21.451Z,17.00
2019-05-29T12:05:51.067Z,17.40
2019-05-29T12:08:19.773Z,17.40
2019-05-29T12:10:48.187Z,17.60
2019-05-29T12:13:16.585Z,17.30
2019-05-29T12:15:45.027Z,17.30
2019-05-29T12:18:23.407Z,17.30
2019-05-29T12:20:43.764Z,17.50
2019-05-29T12:23:25.223Z,17.70
2019-05-29T12:25:42.460Z,17.90
2019-05-29T12:28:10.874Z,18.00
2019-05-29T12:30:39.346Z,18.40
2019-05-29T12:33:08.022Z,18.70
2019-05-29T12:35:36.436Z,19.10
2019-05-29T12:38:04.937Z,19.60
2019-05-29T12:40:33.448Z,19.30
2019-05-29T12:43:02.021Z,19.10
2019-05-29T12:45:30.434Z,18.50
2019-05-29T12:47:59.821Z,18.40
2019-05-29T12:50:28.723Z,18.10
2019-05-29T12:52:57.709Z,18.00
2019-05-29T12:55:26.343Z,18.00
2019-05-29T12:57:55.899Z,18.00
2019-05-29T13:00:24.792Z,17.90
2019-05-29T13:02:54.445Z,17.80
2019-05-29T13:05:23.195Z,18.20
2019-05-29T13:07:51.609Z,18.50
2019-05-29T13:10:29.834Z,18.60
2019-05-29T13:12:51.686Z,18.20
2019-05-29T13:15:20.927Z,18.20
2019-05-29T13:17:49.351Z,18.20
2019-05-29T13:20:21.997Z,18.30
2019-05-29T13:22:48.467Z,18.50
2019-05-29T13:25:17.115Z,18.80
2019-05-29T13:27:45.550Z,18.70
2019-05-29T13:30:16.255Z,18.30
2019-05-29T13:32:44.768Z,18.50
2019-05-29T13:35:13.875Z,18.80
2019-05-29T13:37:42.366Z,18.50
2019-05-29T13:40:11.235Z,18.70
2019-05-29T13:42:39.795Z,18.70
2019-05-29T13:45:17.915Z,18.90
2019-05-29T13:47:40.306Z,19.10
2019-05-29T13:50:12.038Z,19.10
2019-05-29T13:52:39.096Z,19.10
2019-05-29T13:55:08.356Z,19.20
2019-05-29T13:57:39.724Z,19.60
2019-05-29T14:00:30.376Z,20.20
2019-05-29T14:02:41.042Z,19.70
2019-05-29T14:05:10.020Z,19.70
2019-05-29T14:07:38.519Z,19.80
2019-05-29T14:10:07.852Z,20.00
2019-05-29T14:12:38.032Z,20.00
2019-05-29T14:15:08.263Z,20.30
2019-05-29T14:17:37.024Z,20.40
2019-05-29T14:20:08.839Z,20.00
2019-05-29T14:22:37.430Z,20.40
2019-05-29T14:25:07.495Z,20.60
2019-05-29T14:27:35.987Z,21.00
2019-05-29T14:30:08.531Z,20.90
2019-05-29T14:32:37.907Z,20.40
2019-05-29T14:35:09.480Z,20.20
2019-05-29T14:37:39.438Z,19.70
2019-05-29T14:40:08.156Z,19.20
2019-05-29T14:42:36.645Z,19.30
2019-05-29T14:45:10.175Z,19.60
2019-05-29T14:47:38.919Z,19.50
2019-05-29T14:50:08.798Z,19.50
2019-05-29T14:52:37.671Z,19.60
2019-05-29T14:55:09.349Z,19.80
2019-05-29T14:57:37.961Z,19.80
2019-05-29T15:00:20.651Z,20.00
2019-05-29T15:02:41.622Z,20.30
2019-05-29T15:05:11.723Z,20.30
2019-05-29T15:07:40.704Z,20.60
2019-05-29T15:10:22.650Z,20.80
2019-05-29T15:12:39.702Z,20.90
2019-05-29T15:15:11.096Z,21.20
2019-05-29T15:17:39.508Z,21.30
2019-05-29T15:20:09.757Z,21.50
2019-05-29T15:22:38.590Z,21.60
2019-05-29T15:25:16.765Z,22.00
2019-05-29T15:27:38.194Z,22.30
2019-05-29T15:30:11.126Z,22.30
2019-05-29T15:32:39.570Z,22.10
2019-05-29T15:35:12.770Z,22.20
2019-05-29T15:37:38.375Z,22.30
2019-05-29T15:40:08.807Z,22.20
2019-05-29T15:42:37.367Z,22.00
2019-05-29T15:45:07.783Z,21.80
2019-05-29T15:47:36.278Z,21.50
2019-05-29T15:50:09.220Z,21.30
2019-05-29T15:52:37.830Z,20.90
2019-05-29T15:55:21.241Z,20.30
2019-05-29T15:57:38.438Z,20.10
2019-05-29T16:00:09.111Z,19.70
2019-05-29T16:02:37.749Z,19.40
2019-05-29T16:05:08.607Z,19.10
2019-05-29T16:07:37.218Z,18.90
2019-05-29T16:10:13.071Z,18.60
2019-05-29T16:12:40.538Z,18.20
2019-05-29T16:15:11.073Z,18.10
2019-05-29T16:17:39.724Z,17.80
2019-05-29T16:20:10.422Z,17.70
2019-05-29T16:22:39.268Z,17.50
2019-05-29T16:25:08.354Z,17.20
2019-05-29T16:27:36.790Z,17.10
2019-05-29T16:30:08.293Z,17.00
2019-05-29T16:32:36.724Z,16.80
2019-05-29T16:35:10.895Z,16.80
2019-05-29T16:37:39.606Z,16.70
2019-05-29T16:40:11.604Z,16.70
2019-05-29T16:42:40.254Z,16.70
2019-05-29T16:45:10.548Z,16.80
2019-05-29T16:47:39.415Z,16.80
2019-05-29T16:50:08.789Z,16.70
2019-05-29T16:52:37.844Z,16.70
2019-05-29T16:55:06.796Z,16.70
2019-05-29T16:57:35.217Z,16.70
2019-05-29T17:00:08.263Z,16.60
2019-05-29T17:02:36.755Z,16.50
2019-05-29T17:05:06.833Z,16.60
2019-05-29T17:07:35.310Z,16.50
2019-05-29T17:10:07.497Z,16.40
2019-05-29T17:12:35.921Z,16.30
2019-05-29T17:15:07.385Z,16.20
2019-05-29T17:17:35.911Z,16.00
2019-05-29T17:20:07.567Z,15.90
2019-05-29T17:22:35.998Z,15.90
2019-05-29T17:25:05.487Z,15.80
2019-05-29T17:27:34.046Z,15.70
2019-05-29T17:30:02.476Z,15.60
2019-05-29T17:32:30.906Z,15.60
2019-05-29T17:34:59.359Z,15.50
2019-05-29T17:37:27.798Z,15.40
2019-05-29T17:39:56.283Z,15.50
2019-05-29T17:42:24.741Z,15.40
2019-05-29T17:44:53.166Z,15.50
2019-05-29T17:47:21.603Z,15.50
2019-05-29T17:49:50.033Z,15.50
2019-05-29T17:52:19.661Z,15.60
2019-05-29T17:54:48.273Z,15.40
2019-05-29T17:57:18.100Z,15.40
2019-05-29T17:59:46.731Z,15.30
2019-05-29T18:02:16.073Z,15.20
2019-05-29T18:04:44.727Z,15.20
2019-05-29T18:07:13.168Z,15.30
2019-05-29T18:09:41.586Z,15.20
2019-05-29T18:12:09.997Z,15.00
2019-05-29T18:14:38.424Z,14.90
2019-05-29T18:17:06.858Z,14.90
2019-05-29T18:19:35.338Z,14.80
2019-05-29T18:22:03.839Z,14.70
2019-05-29T18:24:32.310Z,14.50
2019-05-29T18:27:00.741Z,14.50
2019-05-29T18:29:29.751Z,14.50
2019-05-29T18:31:58.429Z,14.20
2019-05-29T18:34:27.123Z,14.00
2019-05-29T18:36:55.556Z,13.80
2019-05-29T18:39:24.251Z,13.60
2019-05-29T18:41:52.674Z,13.50
2019-05-29T18:44:21.131Z,13.40
2019-05-29T18:46:49.611Z,13.30
2019-05-29T18:49:18.028Z,13.10
2019-05-29T18:51:46.451Z,13.00
2019-05-29T18:54:14.897Z,12.80
2019-05-29T18:56:43.370Z,12.80
2019-05-29T18:59:11.885Z,12.70
2019-05-29T19:01:40.301Z,12.60
2019-05-29T19:04:08.787Z,12.60
2019-05-29T19:06:37.215Z,12.40
2019-05-29T19:09:07.653Z,12.30
2019-05-29T19:11:36.098Z,12.30
2019-05-29T19:14:05.261Z,12.10
2019-05-29T19:16:33.684Z,12.00
2019-05-29T19:19:02.118Z,11.90
2019-05-29T19:21:30.621Z,11.90
2019-05-29T19:23:59.045Z,11.80
2019-05-29T19:26:28.694Z,11.80
2019-05-29T19:28:57.232Z,11.70
2019-05-29T19:31:26.984Z,11.60
2019-05-29T19:33:55.562Z,11.50
2019-05-29T19:36:23.983Z,11.40
2019-05-29T19:38:52.402Z,11.40
2019-05-29T19:41:21.092Z,11.30
2019-05-29T19:43:49.534Z,11.20
2019-05-29T19:46:18.020Z,11.20
2019-05-29T19:48:46.439Z,11.10
2019-05-29T19:51:14.856Z,11.10
2019-05-29T19:53:43.281Z,11.00
2019-05-29T19:56:11.793Z,11.00
2019-05-29T19:58:40.218Z,10.90
2019-05-29T20:01:08.701Z,10.90
2019-05-29T20:03:37.121Z,10.90
2019-05-29T20:06:05.708Z,10.80
2019-05-29T20:08:37.411Z,10.80
2019-05-29T20:11:06.297Z,10.80
2019-05-29T20:13:35.837Z,10.80
2019-05-29T20:16:04.508Z,10.80
2019-05-29T20:18:34.066Z,10.80
2019-05-29T20:21:02.627Z,10.80
2019-05-29T20:23:36.995Z,10.70
2019-05-29T20:26:05.514Z,10.60
2019-05-29T20:28:34.248Z,10.60
2019-05-29T20:31:02.727Z,10.50
2019-05-29T20:33:32.382Z,10.50
2019-05-29T20:36:00.894Z,10.50
2019-05-29T20:38:29.374Z,10.40
2019-05-29T20:40:57.822Z,10.40
2019-05-29T20:43:26.275Z,10.40
2019-05-29T20:45:54.687Z,10.30
2019-05-29T20:48:23.111Z,10.40
2019-05-29T20:50:51.553Z,10.30
2019-05-29T20:53:19.967Z,10.30
2019-05-29T20:55:48.418Z,10.30
2019-05-29T20:58:24.706Z,10.20
2019-05-29T21:00:46.971Z,10.20
2019-05-29T21:03:15.407Z,10.20
2019-05-29T21:05:43.872Z,10.20
2019-05-29T21:08:12.296Z,10.20
2019-05-29T21:10:41.933Z,10.20
2019-05-29T21:13:11.536Z,10.10
2019-05-29T21:15:42.051Z,10.00
2019-05-29T21:18:10.480Z,9.90
2019-05-29T21:20:40.337Z,9.90
2019-05-29T21:23:08.888Z,9.90
2019-05-29T21:25:38.495Z,9.80
2019-05-29T21:31:35.921Z,9.80
2019-05-29T21:34:04.486Z,9.70
2019-05-29T21:36:32.914Z,9.70
2019-05-29T21:39:02.282Z,9.70
2019-05-29T21:41:40.901Z,9.60
2019-05-29T21:44:10.269Z,9.60
2019-05-29T21:57:21.928Z,9.60
2019-05-29T21:59:57.469Z,9.60
2019-05-29T22:02:25.907Z,9.50
2019-05-29T22:04:54.340Z,9.50
2019-05-29T22:07:22.747Z,9.50
2019-05-29T22:09:52.292Z,9.40
2019-05-29T22:12:20.871Z,9.40
2019-05-29T22:14:50.691Z,9.40
2019-05-29T22:17:19.435Z,9.40
2019-05-29T22:19:47.926Z,9.40
2019-05-29T22:22:16.329Z,9.40
2019-05-29T22:24:44.918Z,9.40
2019-05-29T22:27:14.014Z,9.50
2019-05-29T23:42:36.880Z,8.80
2019-05-29T23:45:09.332Z,8.80
2019-05-29T23:47:37.753Z,8.80
2019-05-29T23:50:08.561Z,8.80
2019-05-29T23:52:37.036Z,8.80
2019-05-29T23:55:07.099Z,8.80
2019-05-29T23:57:35.516Z,8.80
